createdAt,value
2023-03-05T00:01:31.065Z,100372.78
2023-03-05T00:06:38.100Z,100366.75
2023-03-05T00:11:45.362Z,100358.16
2023-03-05T00:16:53.884Z,100359.78
2023-03-05T00:22:00.526Z,100353.75
2023-03-05T00:27:07.359Z,100355.44
2023-03-05T00:32:15.547Z,100344.44
2023-03-05T00:37:23.169Z,100336.69
2023-03-05T00:42:30.070Z,100334.88
2023-03-05T00:47:38.532Z,100322.00
2023-03-05T00:52:45.216Z,100326.16
2023-03-05T00:57:51.955Z,100319.25
2023-03-05T01:02:59.993Z,100316.72
2023-03-05T01:08:08.433Z,100305.56
2023-03-05T01:13:15.231Z,100294.41
2023-03-05T01:18:24.258Z,100293.53
2023-03-05T01:23:30.477Z,100289.19
2023-03-05T01:28:39.443Z,100280.53
2023-03-05T01:33:48.289Z,100277.22
2023-03-05T01:38:55.352Z,100275.41
2023-03-05T01:44:02.936Z,100263.44
2023-03-05T01:49:26.359Z,100265.03
2023-03-05T01:54:38.808Z,100269.38
2023-03-05T01:59:49.349Z,100263.34
2023-03-05T02:05:00.953Z,100251.41
2023-03-05T02:10:19.610Z,100258.22
2023-03-05T02:15:26.357Z,100251.34
2023-03-05T02:20:46.957Z,100251.34
2023-03-05T02:25:55.998Z,100244.50
2023-03-05T02:31:02.628Z,100239.31
2023-03-05T02:36:12.342Z,100239.31
2023-03-05T02:41:20.421Z,100231.59
2023-03-05T02:46:28.903Z,100222.19
2023-03-05T02:51:35.697Z,100224.78
2023-03-05T02:56:44.075Z,100217.84
2023-03-05T03:01:51.050Z,100224.56
2023-03-05T03:06:57.702Z,100224.56
2023-03-05T03:12:08.127Z,100215.19
2023-03-05T03:17:19.602Z,100215.25
2023-03-05T03:22:26.060Z,100213.41
2023-03-05T03:27:34.430Z,100198.91
2023-03-05T03:32:41.025Z,100209.03
2023-03-05T03:37:47.737Z,100204.75
2023-03-05T03:42:56.395Z,100206.50
2023-03-05T03:48:03.040Z,100183.53
2023-03-05T03:53:10.026Z,100180.09
2023-03-05T03:58:18.024Z,100176.66
2023-03-05T04:03:24.506Z,100164.78
2023-03-05T04:08:31.246Z,100164.78
2023-03-05T04:13:39.571Z,100159.72
2023-03-05T04:18:46.203Z,100150.38
2023-03-05T04:23:52.697Z,100152.91
2023-03-05T04:29:00.908Z,100137.66
2023-03-05T04:34:07.505Z,100135.19
2023-03-05T04:39:14.095Z,100130.03
2023-03-05T04:44:23.605Z,100123.31
2023-03-05T04:49:31.060Z,100121.59
2023-03-05T04:54:37.949Z,100113.09
2023-03-05T04:59:46.239Z,100105.44
2023-03-05T05:04:57.418Z,100105.34
2023-03-05T05:10:04.281Z,100101.94
2023-03-05T05:15:15.611Z,100104.44
2023-03-05T05:20:22.604Z,100100.09
2023-03-05T05:25:29.577Z,100105.84
2023-03-05T05:30:37.574Z,100110.03
2023-03-05T05:35:44.041Z,100111.78
2023-03-05T05:40:50.846Z,100108.53
2023-03-05T05:46:02.775Z,100100.16
2023-03-05T05:51:10.812Z,100102.72
2023-03-05T05:56:18.796Z,100095.13
2023-03-05T06:01:30.226Z,100096.06
2023-03-05T06:06:41.033Z,100094.50
2023-03-05T06:11:47.657Z,100081.88
2023-03-05T06:16:55.798Z,100069.13
2023-03-05T06:22:02.304Z,100063.25
2023-03-05T06:27:08.997Z,100053.22
2023-03-05T06:32:17.240Z,100037.19
2023-03-05T06:37:24.509Z,100027.97
2023-03-05T06:42:32.590Z,100011.94
2023-03-05T06:47:40.748Z,100033.34
2023-03-05T06:52:50.346Z,100042.84
2023-03-05T06:57:56.856Z,100058.31
2023-03-05T07:03:05.058Z,100051.66
2023-03-05T07:08:11.872Z,100048.34
2023-03-05T07:13:18.708Z,100040.00
2023-03-05T07:18:26.993Z,100040.13
2023-03-05T07:23:33.534Z,100035.13
2023-03-05T07:28:40.173Z,100043.75
2023-03-05T07:33:48.762Z,100037.91
2023-03-05T07:38:55.421Z,100036.31
2023-03-05T07:44:04.289Z,100030.44
2023-03-05T07:49:12.273Z,100021.97
2023-03-05T07:54:18.970Z,100021.22
2023-03-05T07:59:29.036Z,100027.28
2023-03-05T08:04:37.272Z,100024.78
2023-03-05T08:09:44.501Z,100031.72
2023-03-05T08:14:51.820Z,100021.56
2023-03-05T08:20:00.639Z,100019.06
2023-03-05T08:25:09.513Z,100020.00
2023-03-05T08:30:17.620Z,100012.38
2023-03-05T08:35:26.005Z,100010.75
2023-03-05T08:40:32.546Z,100011.66
2023-03-05T08:45:40.511Z,100017.72
2023-03-05T08:50:49.436Z,100016.09
2023-03-05T08:55:57.875Z,100006.75
2023-03-05T09:01:04.944Z,100005.13
2023-03-05T09:06:14.303Z,100008.59
2023-03-05T09:11:21.057Z,100001.97
2023-03-05T09:16:27.837Z,100008.84
2023-03-05T09:21:36.449Z,100014.03
2023-03-05T09:26:43.037Z,100005.50
2023-03-05T09:31:53.604Z,99999.56
2023-03-05T09:37:02.311Z,100001.34
2023-03-05T09:42:30.341Z,100001.34
2023-03-05T09:47:53.978Z,100001.41
2023-03-05T09:53:09.856Z,100004.00
2023-03-05T09:58:20.099Z,100000.63
2023-03-05T10:03:31.724Z,99999.81
2023-03-05T10:08:53.958Z,99994.72
2023-03-05T10:14:00.767Z,99987.06
2023-03-05T10:19:13.468Z,99986.25
2023-03-05T10:24:32.987Z,99985.47
2023-03-05T10:29:59.989Z,99982.88
2023-03-05T10:35:53.921Z,99982.00
2023-03-05T10:41:09.589Z,99967.53
2023-03-05T10:46:20.830Z,99967.47
2023-03-05T10:51:36.480Z,99958.91
2023-03-05T10:56:46.380Z,99956.34
2023-03-05T11:02:06.518Z,99951.22
2023-03-05T11:07:40.340Z,99945.25
2023-03-05T11:12:50.534Z,99937.56
2023-03-05T11:18:24.539Z,99934.16
2023-03-05T11:23:32.223Z,99931.63
2023-03-05T11:28:43.712Z,99930.75
2023-03-05T11:34:01.421Z,99915.38
2023-03-05T11:39:17.845Z,99912.84
2023-03-05T11:44:33.021Z,99906.88
2023-03-05T11:49:47.307Z,99897.47
2023-03-05T11:55:05.542Z,99887.19
2023-03-05T12:00:28.568Z,99887.22
2023-03-05T12:05:39.873Z,99882.97
2023-03-05T12:10:48.245Z,99874.41
2023-03-05T12:16:11.829Z,99867.59
2023-03-05T12:21:33.256Z,99871.00
2023-03-05T12:27:15.052Z,99870.19
2023-03-05T12:33:03.608Z,99863.31
2023-03-05T12:38:34.880Z,99866.78
2023-03-05T12:43:43.350Z,99865.03
2023-03-05T12:48:56.217Z,99860.75
2023-03-05T12:54:36.462Z,99864.19
2023-03-05T12:59:50.537Z,99847.03
2023-03-05T13:05:06.136Z,99835.94
2023-03-05T13:10:27.097Z,99839.38
2023-03-05T13:15:37.532Z,99836.81
2023-03-05T13:20:51.305Z,99841.09
2023-03-05T13:26:15.657Z,99838.53
2023-03-05T13:31:25.822Z,99842.81
2023-03-05T13:36:35.348Z,99829.97
2023-03-05T13:41:44.980Z,99830.81
2023-03-05T13:46:53.608Z,99827.44
2023-03-05T13:52:05.893Z,99829.13
2023-03-05T13:57:38.307Z,99818.00
2023-03-05T14:02:47.180Z,99819.72
2023-03-05T14:07:58.191Z,99815.44
2023-03-05T14:13:20.310Z,99816.31
2023-03-05T14:18:29.670Z,99809.47
2023-03-05T14:23:48.005Z,99807.72
2023-03-05T14:28:59.844Z,99806.88
2023-03-05T14:34:11.252Z,99804.31
2023-03-05T14:39:46.179Z,99802.59
2023-03-05T14:44:56.552Z,99802.63
2023-03-05T14:50:06.309Z,99795.78
2023-03-05T14:55:23.678Z,99789.78
2023-03-05T15:00:34.307Z,99790.63
2023-03-05T15:05:46.209Z,99788.91
2023-03-05T15:10:59.748Z,99790.63
2023-03-05T15:16:12.788Z,99793.16
2023-03-05T15:21:26.001Z,99794.88
2023-03-05T15:26:40.053Z,99791.47
2023-03-05T15:31:49.532Z,99796.56
2023-03-05T15:36:58.939Z,99797.44
2023-03-05T15:42:11.051Z,99788.84
2023-03-05T15:47:20.532Z,99789.72
2023-03-05T15:52:29.766Z,99793.97
2023-03-05T15:57:46.684Z,99797.38
2023-03-05T16:02:56.988Z,99795.63
2023-03-05T16:08:07.763Z,99802.44
2023-03-05T16:13:21.817Z,99809.31
2023-03-05T16:18:32.290Z,99813.53
2023-03-05T16:23:43.766Z,99814.38
2023-03-05T16:28:56.395Z,99816.94
2023-03-05T16:34:07.914Z,99822.03
2023-03-05T16:39:21.781Z,99820.25
2023-03-05T16:44:33.825Z,99820.22
2023-03-05T16:49:43.534Z,99824.47
2023-03-05T16:54:54.681Z,99830.44
2023-03-05T17:00:10.048Z,99826.97
2023-03-05T17:05:20.076Z,99832.91
2023-03-05T17:10:29.838Z,99840.56
2023-03-05T17:15:46.407Z,99831.13
2023-03-05T17:20:57.926Z,99837.91
2023-03-05T17:26:10.864Z,99831.91
2023-03-05T17:31:24.290Z,99822.47
2023-03-05T17:36:35.308Z,99829.25
2023-03-05T17:41:46.304Z,99824.94
2023-03-05T17:47:00.858Z,99827.56
2023-03-05T17:52:12.583Z,99822.34
2023-03-05T17:57:26.011Z,99824.84
2023-03-05T18:02:41.361Z,99835.94
2023-03-05T18:07:53.220Z,99822.19
2023-03-05T18:13:04.579Z,99823.78
2023-03-05T18:18:16.506Z,99830.59
2023-03-05T18:23:28.419Z,99820.28
2023-03-05T18:28:39.332Z,99833.09
2023-03-05T18:33:53.060Z,99826.22
2023-03-05T18:39:01.983Z,99820.19
2023-03-05T18:44:11.562Z,99829.53
2023-03-05T18:49:22.942Z,99822.63
2023-03-05T18:54:34.592Z,99825.09
2023-03-05T18:59:48.989Z,99831.06
2023-03-05T19:05:13.715Z,99820.75
2023-03-05T19:10:23.977Z,99827.53
2023-03-05T19:15:35.725Z,99819.88
2023-03-05T19:20:57.624Z,99825.75
2023-03-05T19:26:10.915Z,99821.50
2023-03-05T19:31:20.256Z,99823.19
2023-03-05T19:36:37.537Z,99826.53
2023-03-05T19:41:50.837Z,99817.91
2023-03-05T19:47:02.352Z,99824.78
2023-03-05T19:52:17.759Z,99820.47
2023-03-05T19:57:27.181Z,99817.88
2023-03-05T20:02:39.482Z,99821.31
2023-03-05T20:07:54.796Z,99829.81
2023-03-05T20:13:08.242Z,99827.19
2023-03-05T20:18:19.940Z,99824.63
2023-03-05T20:23:33.831Z,99831.47
2023-03-05T20:28:46.264Z,99816.94
2023-03-05T20:33:59.939Z,99821.19
2023-03-05T20:39:14.274Z,99827.06
2023-03-05T20:44:24.118Z,99817.69
2023-03-05T20:49:33.285Z,99810.81
2023-03-05T20:54:48.531Z,99817.69
2023-03-05T21:00:01.253Z,99816.78
2023-03-05T21:05:13.648Z,99809.94
2023-03-05T21:10:27.657Z,99809.03
2023-03-05T21:15:37.833Z,99807.22
2023-03-05T21:20:46.657Z,99804.63
2023-03-05T21:25:58.709Z,99806.13
2023-03-05T21:31:11.966Z,99798.16
2023-03-05T21:36:21.159Z,99802.25
2023-03-05T21:41:30.849Z,99796.34
2023-03-05T21:46:38.875Z,99797.16
2023-03-05T21:51:59.550Z,99796.09
2023-03-05T21:57:09.623Z,99795.88
2023-03-05T22:02:17.485Z,99799.31
2023-03-05T22:07:23.834Z,99804.47
2023-03-05T22:12:44.042Z,99803.63
2023-03-05T22:17:50.734Z,99800.16
2023-03-05T22:22:57.105Z,99800.72
2023-03-05T22:28:06.275Z,99803.22
2023-03-05T22:33:12.716Z,99803.06
2023-03-05T22:38:19.598Z,99798.75
2023-03-05T22:43:27.339Z,99792.63
2023-03-05T22:48:33.784Z,99793.47
2023-03-05T22:53:44.346Z,99798.44
2023-03-05T22:58:52.714Z,99796.81
2023-03-05T23:04:04.201Z,99786.53
2023-03-05T23:09:11.013Z,99791.66
2023-03-05T23:14:19.246Z,99785.56
2023-03-05T23:19:26.449Z,99783.69
2023-03-05T23:24:33.196Z,99784.53
2023-03-05T23:29:54.802Z,99790.41
2023-03-05T23:35:01.303Z,99790.41
2023-03-05T23:40:14.513Z,99782.78
2023-03-05T23:45:24.762Z,99781.91
2023-03-05T23:50:34.702Z,99780.16
2023-03-05T23:55:45.495Z,99783.38
